createdAt,value
2023-06-22T00:00:35.664Z,81.06
2023-06-22T00:03:03.601Z,80.72
2023-06-22T00:05:31.434Z,80.75
2023-06-22T00:08:00.549Z,81.63
2023-06-22T00:10:28.588Z,81.68
2023-06-22T00:12:56.611Z,81.89
2023-06-22T00:15:24.501Z,82.49
2023-06-22T00:17:53.334Z,83.25
2023-06-22T00:20:21.141Z,84.07
2023-06-22T00:22:48.986Z,83.78
2023-06-22T00:25:18.319Z,85.48
2023-06-22T00:27:46.048Z,86.37
2023-06-22T00:30:14.662Z,87.01
2023-06-22T00:32:42.609Z,87.08
2023-06-22T00:35:11.098Z,86.91
2023-06-22T00:37:39.721Z,87.06
2023-06-22T00:40:09.703Z,86.53
2023-06-22T00:42:38.877Z,86.34
2023-06-22T00:45:07.880Z,85.92
2023-06-22T00:47:38.015Z,85.31
2023-06-22T00:50:09.423Z,86.33
2023-06-22T00:52:37.643Z,86.09
2023-06-22T00:55:07.909Z,86.61
2023-06-22T00:57:38.385Z,86.77
2023-06-22T01:00:21.323Z,86.23
2023-06-22T01:02:52.735Z,86.87
2023-06-22T01:05:21.896Z,86.58
2023-06-22T01:08:10.259Z,86.68
2023-06-22T01:10:43.805Z,86.62
2023-06-22T01:13:20.404Z,87.09
2023-06-22T01:15:55.262Z,87.06
2023-06-22T01:18:28.085Z,87.25
2023-06-22T01:20:58.734Z,87.55
2023-06-22T01:23:35.277Z,87.54
2023-06-22T01:26:08.948Z,87.59
2023-06-22T01:28:43.593Z,87.87
2023-06-22T01:31:15.796Z,87.28
2023-06-22T01:33:48.657Z,88.27
2023-06-22T01:36:17.018Z,89.49
2023-06-22T01:38:46.579Z,89.88
2023-06-22T01:41:15.310Z,89.17
2023-06-22T01:43:45.089Z,89.27
2023-06-22T01:46:14.359Z,89.57
2023-06-22T01:48:42.613Z,89.60
2023-06-22T01:51:10.627Z,89.89
2023-06-22T01:53:38.375Z,89.91
2023-06-22T01:56:06.620Z,89.97
2023-06-22T01:58:35.735Z,89.56
2023-06-22T02:01:14.392Z,91.19
2023-06-22T02:03:46.736Z,91.89
2023-06-22T02:06:19.397Z,91.87
2023-06-22T02:08:52.073Z,91.42
2023-06-22T02:11:22.548Z,91.71
2023-06-22T02:13:51.876Z,91.30
2023-06-22T02:16:21.655Z,91.48
2023-06-22T02:18:52.049Z,91.26
2023-06-22T02:21:19.960Z,91.14
2023-06-22T02:23:48.176Z,91.12
2023-06-22T02:26:18.460Z,91.42
2023-06-22T02:28:47.080Z,91.35
2023-06-22T02:31:14.897Z,91.59
2023-06-22T02:33:46.888Z,90.67
2023-06-22T02:36:14.889Z,91.06
2023-06-22T02:38:49.551Z,91.86
2023-06-22T02:41:19.262Z,92.24
2023-06-22T02:43:47.513Z,92.12
2023-06-22T02:46:16.028Z,91.50
2023-06-22T02:48:47.228Z,91.55
2023-06-22T02:51:16.190Z,91.17
2023-06-22T02:53:45.753Z,91.03
2023-06-22T02:56:13.929Z,91.40
2023-06-22T02:58:41.787Z,91.27
2023-06-22T03:01:11.228Z,91.49
2023-06-22T03:03:39.134Z,91.46
2023-06-22T03:06:08.574Z,91.62
2023-06-22T03:08:36.489Z,92.52
2023-06-22T03:11:04.290Z,92.49
2023-06-22T03:13:32.054Z,93.72
2023-06-22T03:15:59.828Z,95.04
2023-06-22T03:18:27.580Z,95.32
2023-06-22T03:20:55.356Z,95.34
2023-06-22T03:23:24.522Z,94.61
2023-06-22T03:25:52.393Z,95.64
2023-06-22T03:28:20.129Z,94.91
2023-06-22T03:30:47.867Z,95.37
2023-06-22T03:33:15.695Z,96.25
2023-06-22T03:35:43.490Z,96.43
2023-06-22T03:38:11.339Z,96.50
2023-06-22T03:40:40.514Z,96.60
2023-06-22T03:43:08.322Z,96.45
2023-06-22T03:45:36.124Z,96.62
2023-06-22T03:48:03.963Z,96.70
2023-06-22T03:50:32.211Z,96.86
2023-06-22T03:53:00.250Z,95.85
2023-06-22T03:55:27.998Z,96.92
2023-06-22T03:57:58.304Z,97.06
2023-06-22T04:00:26.265Z,97.70
2023-06-22T04:02:54.222Z,97.23
2023-06-22T04:05:22.024Z,97.40
2023-06-22T04:07:49.795Z,97.52
2023-06-22T04:10:18.489Z,98.49
2023-06-22T04:12:46.339Z,98.66
2023-06-22T04:15:15.727Z,98.78
2023-06-22T04:17:43.606Z,98.89
2023-06-22T04:20:11.772Z,98.57
2023-06-22T04:22:39.585Z,99.34
2023-06-22T04:25:08.977Z,99.31
2023-06-22T04:27:38.228Z,99.65
2023-06-22T04:30:08.215Z,99.51
2023-06-22T04:32:38.044Z,99.95
2023-06-22T04:35:07.599Z,99.91
2023-06-22T04:37:35.391Z,100.00
2023-06-22T04:40:05.075Z,100.00
2023-06-22T04:42:33.096Z,100.00
2023-06-22T04:45:02.270Z,100.00
2023-06-22T04:47:30.409Z,100.00
2023-06-22T04:49:59.601Z,100.00
2023-06-22T04:52:27.343Z,100.00
2023-06-22T04:54:56.890Z,100.00
2023-06-22T04:57:33.735Z,100.00
2023-06-22T05:00:12.267Z,100.00
2023-06-22T05:02:40.445Z,100.00
2023-06-22T05:05:14.512Z,100.00
2023-06-22T05:07:44.647Z,100.00
2023-06-22T05:10:13.514Z,100.00
2023-06-22T05:12:42.028Z,100.00
2023-06-22T05:15:10.992Z,100.00
2023-06-22T05:17:43.840Z,100.00
2023-06-22T05:20:14.908Z,100.00
2023-06-22T05:22:44.271Z,100.00
2023-06-22T05:25:13.269Z,100.00
2023-06-22T05:27:41.309Z,100.00
2023-06-22T05:30:10.686Z,100.00
2023-06-22T05:32:38.645Z,99.63
2023-06-22T05:35:07.137Z,99.39
2023-06-22T05:37:36.323Z,99.26
2023-06-22T05:40:04.948Z,98.45
2023-06-22T05:42:32.792Z,97.47
2023-06-22T05:45:00.964Z,97.32
2023-06-22T05:47:28.764Z,97.03
2023-06-22T05:49:56.637Z,96.97
2023-06-22T05:52:24.432Z,97.35
2023-06-22T05:54:53.789Z,96.53
2023-06-22T05:57:22.917Z,96.28
2023-06-22T05:59:50.691Z,96.70
2023-06-22T06:02:18.553Z,96.82
2023-06-22T06:04:46.407Z,96.26
2023-06-22T06:07:14.182Z,96.05
2023-06-22T06:09:41.940Z,95.97
2023-06-22T06:12:11.623Z,95.78
2023-06-22T06:14:39.391Z,95.24
2023-06-22T06:17:07.315Z,95.36
2023-06-22T06:19:35.100Z,94.72
2023-06-22T06:22:02.945Z,93.99
2023-06-22T06:24:30.720Z,92.22
2023-06-22T06:26:58.474Z,90.72
2023-06-22T06:29:27.695Z,89.82
2023-06-22T06:31:55.550Z,90.00
2023-06-22T06:34:23.347Z,90.17
2023-06-22T06:36:51.121Z,88.44
2023-06-22T06:39:19.014Z,88.37
2023-06-22T06:41:46.831Z,88.06
2023-06-22T06:44:14.852Z,87.65
2023-06-22T06:46:44.146Z,87.22
2023-06-22T06:49:12.044Z,86.76
2023-06-22T06:51:39.872Z,86.02
2023-06-22T06:54:07.659Z,86.39
2023-06-22T06:56:35.485Z,86.10
2023-06-22T06:59:03.281Z,85.57
2023-06-22T07:01:34.556Z,83.52
2023-06-22T07:04:03.795Z,83.98
2023-06-22T07:06:33.337Z,84.26
2023-06-22T07:09:01.823Z,84.07
2023-06-22T07:11:29.748Z,81.49
2023-06-22T07:13:57.544Z,79.90
2023-06-22T07:16:26.809Z,80.43
2023-06-22T07:18:54.607Z,77.49
2023-06-22T07:21:23.855Z,75.47
2023-06-22T07:23:51.703Z,73.27
2023-06-22T07:26:19.591Z,71.79
2023-06-22T07:28:47.486Z,71.12
2023-06-22T07:31:15.393Z,70.97
2023-06-22T07:33:43.311Z,71.00
2023-06-22T07:36:11.140Z,71.34
2023-06-22T07:38:40.307Z,70.79
2023-06-22T07:41:08.117Z,71.74
2023-06-22T07:43:38.074Z,71.64
2023-06-22T07:46:06.261Z,71.84
2023-06-22T07:48:34.212Z,72.97
2023-06-22T07:51:02.062Z,72.66
2023-06-22T07:53:29.913Z,71.76
2023-06-22T07:55:59.288Z,72.60
2023-06-22T07:58:27.152Z,72.89
2023-06-22T08:00:55.002Z,73.72
2023-06-22T08:03:22.948Z,73.66
2023-06-22T08:05:51.044Z,73.94
2023-06-22T08:08:18.855Z,74.92
2023-06-22T08:10:46.792Z,74.83
2023-06-22T08:26:37.773Z,68.25
2023-06-22T08:29:05.842Z,68.88
2023-06-22T08:31:35.442Z,68.32
2023-06-22T08:34:03.487Z,67.80
2023-06-22T08:36:33.698Z,67.58
2023-06-22T08:39:04.117Z,67.41
2023-06-22T08:41:32.141Z,66.55
2023-06-22T08:44:01.340Z,67.16
2023-06-22T08:46:34.418Z,67.07
2023-06-22T08:49:02.383Z,67.63
2023-06-22T08:51:30.425Z,68.49
2023-06-22T08:53:58.635Z,68.59
2023-06-22T08:56:26.539Z,68.60
2023-06-22T08:58:55.733Z,69.04
2023-06-22T09:01:26.736Z,69.75
2023-06-22T09:03:58.832Z,67.53
2023-06-22T09:06:27.017Z,67.52
2023-06-22T09:08:54.878Z,67.73
2023-06-22T09:11:22.782Z,67.65
2023-06-22T09:13:50.764Z,67.65
2023-06-22T09:16:18.661Z,67.60
2023-06-22T09:18:50.523Z,68.90
2023-06-22T09:21:18.446Z,68.59
2023-06-22T09:23:51.236Z,68.98
2023-06-22T09:26:19.166Z,67.80
2023-06-22T09:28:47.051Z,64.75
2023-06-22T09:31:15.131Z,62.76
2023-06-22T09:33:43.167Z,62.60
2023-06-22T09:36:12.510Z,60.82
2023-06-22T09:38:40.898Z,60.26
2023-06-22T09:41:08.726Z,60.30
2023-06-22T09:43:37.300Z,61.08
2023-06-22T09:46:05.126Z,60.60
2023-06-22T09:48:32.976Z,60.68
2023-06-22T09:51:00.779Z,59.71
2023-06-22T09:53:29.927Z,59.88
2023-06-22T09:55:58.360Z,60.32
2023-06-22T09:58:26.210Z,58.74
2023-06-22T10:00:55.405Z,59.83
2023-06-22T10:03:24.142Z,59.67
2023-06-22T10:05:52.133Z,59.33
2023-06-22T10:08:19.910Z,59.80
2023-06-22T10:10:49.827Z,59.04
2023-06-22T10:13:19.965Z,59.34
2023-06-22T10:15:50.819Z,59.11
2023-06-22T10:18:18.718Z,59.71
2023-06-22T10:20:47.495Z,60.36
2023-06-22T10:23:15.706Z,60.52
2023-06-22T10:25:43.541Z,59.45
2023-06-22T10:28:13.528Z,59.96
2023-06-22T10:30:42.442Z,60.58
2023-06-22T10:33:10.354Z,61.07
2023-06-22T10:35:39.582Z,60.53
2023-06-22T10:38:08.051Z,60.67
2023-06-22T10:40:36.070Z,61.23
2023-06-22T10:43:03.912Z,61.66
2023-06-22T10:45:33.449Z,63.36
2023-06-22T10:48:01.676Z,64.50
2023-06-22T10:50:29.674Z,65.42
2023-06-22T10:53:00.366Z,65.80
2023-06-22T10:55:34.636Z,65.96
2023-06-22T10:58:08.828Z,65.68
2023-06-22T11:00:38.564Z,66.77
2023-06-22T11:03:06.537Z,66.63
2023-06-22T11:05:34.549Z,66.48
2023-06-22T11:08:02.320Z,66.86
2023-06-22T11:10:30.443Z,66.51
2023-06-22T11:12:59.037Z,66.60
2023-06-22T11:15:26.942Z,66.94
2023-06-22T11:17:56.141Z,67.07
2023-06-22T11:20:24.039Z,67.82
2023-06-22T11:22:51.882Z,67.74
2023-06-22T11:25:19.841Z,67.41
2023-06-22T11:27:47.739Z,67.09
2023-06-22T11:30:15.689Z,66.76
2023-06-22T11:32:43.704Z,66.57
2023-06-22T11:35:13.036Z,66.74
2023-06-22T11:37:40.825Z,65.61
2023-06-22T11:40:10.436Z,66.37
2023-06-22T11:42:38.410Z,66.32
2023-06-22T11:45:09.867Z,66.55
2023-06-22T11:47:38.175Z,66.43
2023-06-22T11:50:07.130Z,66.80
2023-06-22T11:52:38.045Z,66.70
2023-06-22T11:55:07.677Z,65.76
2023-06-22T11:57:36.834Z,66.00
2023-06-22T12:00:11.923Z,65.91
2023-06-22T12:02:39.769Z,65.38
2023-06-22T12:05:09.156Z,66.03
2023-06-22T12:07:38.605Z,66.29
2023-06-22T12:10:07.398Z,66.54
2023-06-22T12:12:35.217Z,66.61
2023-06-22T12:15:04.780Z,66.76
2023-06-22T12:17:32.618Z,66.63
2023-06-22T12:20:00.900Z,67.44
2023-06-22T12:22:28.679Z,69.01
2023-06-22T12:24:57.845Z,69.90
2023-06-22T12:27:25.630Z,72.76
2023-06-22T12:29:53.504Z,72.95
2023-06-22T12:32:21.446Z,73.76
2023-06-22T12:34:49.280Z,74.63
2023-06-22T12:37:17.102Z,74.55
2023-06-22T12:39:45.862Z,75.77
2023-06-22T12:42:15.035Z,75.44
2023-06-22T12:44:43.194Z,76.44
2023-06-22T12:47:11.264Z,78.98
2023-06-22T12:49:39.440Z,78.65
2023-06-22T12:52:11.432Z,77.93
2023-06-22T12:54:50.402Z,78.45
2023-06-22T12:57:20.613Z,78.51
2023-06-22T12:59:48.424Z,77.53
2023-06-22T13:02:16.342Z,76.56
2023-06-22T13:04:44.529Z,75.79
2023-06-22T13:09:43.293Z,74.90
2023-06-22T13:12:11.626Z,74.63
2023-06-22T13:14:40.986Z,75.34
2023-06-22T13:17:10.846Z,74.27
2023-06-22T13:19:38.767Z,72.81
2023-06-22T13:22:08.363Z,73.28
2023-06-22T13:24:36.202Z,73.82
2023-06-22T13:27:04.102Z,73.87
2023-06-22T13:29:32.250Z,75.21
2023-06-22T13:32:01.552Z,74.20
2023-06-22T13:34:29.764Z,73.80
2023-06-22T13:36:57.692Z,72.96
2023-06-22T13:39:25.662Z,73.01
2023-06-22T13:41:53.479Z,72.32
2023-06-22T13:44:22.597Z,73.26
2023-06-22T13:46:50.490Z,73.23
2023-06-22T13:49:19.763Z,73.68
2023-06-22T13:51:49.150Z,74.15
2023-06-22T13:54:29.452Z,74.05
2023-06-22T13:56:58.074Z,73.55
2023-06-22T13:59:27.498Z,73.74
2023-06-22T14:01:56.253Z,74.04
2023-06-22T14:04:25.892Z,74.52
2023-06-22T14:06:57.069Z,75.26
2023-06-22T14:09:25.414Z,76.23
2023-06-22T14:11:53.331Z,75.85
2023-06-22T14:14:21.164Z,76.31
2023-06-22T14:16:50.520Z,75.95
2023-06-22T14:19:19.950Z,75.83
2023-06-22T14:21:49.157Z,75.56
2023-06-22T14:24:17.231Z,75.72
2023-06-22T14:26:45.127Z,75.48
2023-06-22T14:29:13.030Z,75.49
2023-06-22T14:31:40.963Z,75.88
2023-06-22T14:34:08.834Z,75.37
2023-06-22T14:36:36.654Z,76.39
2023-06-22T14:39:05.875Z,76.14
2023-06-22T14:41:33.814Z,76.22
2023-06-22T14:44:01.943Z,76.33
2023-06-22T14:46:30.030Z,76.61
2023-06-22T14:48:57.897Z,78.09
2023-06-22T14:51:25.684Z,79.39
2023-06-22T14:53:53.571Z,79.51
2023-06-22T14:56:22.927Z,80.73
2023-06-22T14:58:50.741Z,81.63
2023-06-22T15:01:19.507Z,82.27
2023-06-22T15:03:47.477Z,83.08
2023-06-22T15:06:15.835Z,83.96
2023-06-22T15:08:43.738Z,84.51
2023-06-22T15:11:12.150Z,84.70
2023-06-22T15:13:43.224Z,84.38
2023-06-22T15:16:11.406Z,84.78
2023-06-22T15:18:39.502Z,85.30
2023-06-22T15:21:07.631Z,85.58
2023-06-22T15:23:36.438Z,85.03
2023-06-22T15:26:06.372Z,85.36
2023-06-22T15:28:36.179Z,85.80
2023-06-22T15:31:05.692Z,87.09
2023-06-22T15:33:33.810Z,86.34
2023-06-22T15:36:04.935Z,87.47
2023-06-22T15:38:34.653Z,87.58
2023-06-22T15:41:02.729Z,87.62
2023-06-22T15:43:30.514Z,87.36
2023-06-22T15:45:58.306Z,88.73
2023-06-22T15:48:27.472Z,88.22
2023-06-22T15:50:55.297Z,89.02
2023-06-22T15:53:23.119Z,89.62
2023-06-22T15:55:50.957Z,89.64
2023-06-22T15:58:18.810Z,89.97
2023-06-22T16:00:50.890Z,90.95
2023-06-22T16:03:20.242Z,91.91
2023-06-22T16:05:49.463Z,92.69
2023-06-22T16:08:17.318Z,93.04
2023-06-22T16:10:45.121Z,94.01
2023-06-22T16:13:12.945Z,93.99
2023-06-22T16:15:40.704Z,94.53
2023-06-22T16:18:08.961Z,94.10
2023-06-22T16:20:36.795Z,93.50
2023-06-22T16:23:05.918Z,93.67
2023-06-22T16:25:33.683Z,93.40
2023-06-22T16:28:01.520Z,92.98
2023-06-22T16:30:29.434Z,93.33
2023-06-22T16:33:00.014Z,92.87
2023-06-22T16:35:28.223Z,93.45
2023-06-22T16:37:56.529Z,93.82
2023-06-22T16:40:25.862Z,94.16
2023-06-22T16:42:54.117Z,94.18
2023-06-22T16:45:22.528Z,94.11
2023-06-22T16:47:52.259Z,93.95
2023-06-22T16:50:20.530Z,94.11
2023-06-22T16:52:50.825Z,94.37
2023-06-22T16:55:18.669Z,93.01
2023-06-22T16:57:48.145Z,93.37
2023-06-22T17:00:17.003Z,93.17
2023-06-22T17:02:48.640Z,93.20
2023-06-22T17:05:18.372Z,92.61
2023-06-22T17:07:50.983Z,92.35
2023-06-22T17:10:19.602Z,92.29
2023-06-22T17:12:51.068Z,92.14
2023-06-22T17:15:22.295Z,92.85
2023-06-22T17:17:50.628Z,93.15
2023-06-22T17:20:18.652Z,93.01
2023-06-22T17:22:47.352Z,93.47
2023-06-22T17:25:16.667Z,95.04
2023-06-22T17:27:48.838Z,95.04
2023-06-22T17:30:19.375Z,95.76
2023-06-22T17:32:48.691Z,95.08
2023-06-22T17:35:16.833Z,95.42
2023-06-22T17:37:52.084Z,95.27
2023-06-22T17:40:21.384Z,95.83
2023-06-22T17:42:49.572Z,96.01
2023-06-22T17:45:19.932Z,96.36
2023-06-22T17:47:53.087Z,96.83
2023-06-22T17:50:24.466Z,96.99
2023-06-22T17:52:53.840Z,96.73
2023-06-22T17:55:25.071Z,97.42
2023-06-22T17:57:57.759Z,97.50
2023-06-22T18:00:27.721Z,97.41
2023-06-22T18:02:56.718Z,97.30
2023-06-22T18:05:32.300Z,97.92
2023-06-22T18:08:01.902Z,98.71
2023-06-22T18:10:32.127Z,98.79
2023-06-22T18:13:01.221Z,99.34
2023-06-22T18:15:30.853Z,99.80
2023-06-22T18:18:00.912Z,99.58
2023-06-22T18:20:29.931Z,100.00
2023-06-22T18:22:59.757Z,100.00
2023-06-22T18:25:29.028Z,100.00
2023-06-22T18:27:57.126Z,100.00
2023-06-22T18:30:26.522Z,100.00
2023-06-22T18:32:55.752Z,100.00
2023-06-22T18:35:23.864Z,100.00
2023-06-22T18:37:53.355Z,100.00
2023-06-22T18:40:21.683Z,100.00
2023-06-22T18:42:50.052Z,100.00
2023-06-22T18:45:25.238Z,100.00
2023-06-22T18:48:05.878Z,100.00
2023-06-22T18:50:39.568Z,100.00
2023-06-22T18:53:08.443Z,100.00
2023-06-22T18:55:36.286Z,100.00
2023-06-22T18:58:19.969Z,100.00
2023-06-22T19:00:47.915Z,100.00
2023-06-22T19:06:12.030Z,100.00
2023-06-22T19:09:14.644Z,100.00
2023-06-22T19:11:42.618Z,100.00
2023-06-22T19:14:10.814Z,100.00
2023-06-22T19:16:38.797Z,100.00
2023-06-22T19:19:14.712Z,97.61
2023-06-22T19:21:44.384Z,97.10
2023-06-22T19:24:30.800Z,97.38
2023-06-22T19:26:59.068Z,97.39
2023-06-22T19:29:28.636Z,97.07
2023-06-22T19:31:57.936Z,96.67
2023-06-22T19:34:28.763Z,95.33
2023-06-22T19:37:01.413Z,95.22
2023-06-22T19:39:36.761Z,95.18
2023-06-22T19:42:04.960Z,94.86
2023-06-22T19:44:32.777Z,93.90
2023-06-22T19:47:00.669Z,91.27
2023-06-22T19:49:28.680Z,92.03
2023-06-22T19:52:08.182Z,90.02
2023-06-22T19:54:38.305Z,90.96
2023-06-22T19:57:07.029Z,90.31
2023-06-22T19:59:34.822Z,90.93
2023-06-22T20:02:02.833Z,90.35
2023-06-22T20:04:33.241Z,90.60
2023-06-22T20:07:06.826Z,91.46
2023-06-22T20:09:38.287Z,91.78
2023-06-22T20:12:10.250Z,91.60
2023-06-22T20:14:38.135Z,91.25
2023-06-22T20:17:06.708Z,91.39
2023-06-22T20:19:37.887Z,91.62
2023-06-22T20:22:08.531Z,91.78
2023-06-22T20:24:36.487Z,91.03
2023-06-22T20:27:12.749Z,91.54
2023-06-22T20:29:42.552Z,91.40
2023-06-22T20:32:13.738Z,91.06
2023-06-22T20:34:45.799Z,90.76
2023-06-22T20:37:15.615Z,89.94
2023-06-22T20:39:46.731Z,90.38
2023-06-22T20:42:16.615Z,90.72
2023-06-22T20:44:51.286Z,90.54
2023-06-22T20:47:21.242Z,90.53
2023-06-22T20:49:50.133Z,90.95
2023-06-22T20:52:20.033Z,90.93
2023-06-22T20:54:48.506Z,91.27
2023-06-22T20:57:16.424Z,91.15
2023-06-22T20:59:44.267Z,91.40
2023-06-22T21:02:12.436Z,91.82
2023-06-22T21:04:41.228Z,92.00
2023-06-22T21:07:09.442Z,92.17
2023-06-22T21:09:50.748Z,92.23
2023-06-22T21:12:19.860Z,92.17
2023-06-22T21:14:47.659Z,92.57
2023-06-22T21:17:15.552Z,93.48
2023-06-22T21:19:43.373Z,93.31
2023-06-22T21:22:11.418Z,93.66
2023-06-22T21:24:42.221Z,93.55
2023-06-22T21:27:11.401Z,92.99
2023-06-22T21:29:39.172Z,94.00
2023-06-22T21:32:08.041Z,93.90
2023-06-22T21:34:35.862Z,93.83
2023-06-22T21:37:03.674Z,93.54
2023-06-22T21:39:31.514Z,94.07
2023-06-22T21:42:00.697Z,93.81
2023-06-22T21:44:28.453Z,93.22
2023-06-22T21:46:56.217Z,92.82
2023-06-22T21:49:24.024Z,92.77
2023-06-22T21:51:51.796Z,93.17
2023-06-22T21:54:19.587Z,92.89
2023-06-22T21:56:47.451Z,92.65
2023-06-22T21:59:16.600Z,93.14
2023-06-22T22:01:44.403Z,93.13
2023-06-22T22:04:12.241Z,93.37
2023-06-22T22:06:40.562Z,93.46
2023-06-22T22:09:09.811Z,93.76
2023-06-22T22:11:37.624Z,93.96
2023-06-22T22:14:09.621Z,94.29
2023-06-22T22:16:38.817Z,95.01
2023-06-22T22:19:06.604Z,95.53
2023-06-22T22:21:34.752Z,96.45
2023-06-22T22:24:02.920Z,96.46
2023-06-22T22:26:30.797Z,96.29
2023-06-22T22:28:58.633Z,96.94
2023-06-22T22:31:26.466Z,97.09
2023-06-22T22:33:56.036Z,97.55
2023-06-22T22:36:24.106Z,97.44
2023-06-22T22:38:51.924Z,98.53
2023-06-22T22:41:19.768Z,98.60
2023-06-22T22:43:48.204Z,98.56
2023-06-22T22:46:18.110Z,98.91
2023-06-22T22:48:45.987Z,98.85
2023-06-22T22:51:15.149Z,98.82
2023-06-22T22:53:43.183Z,98.96
2023-06-22T22:56:11.654Z,99.41
2023-06-22T22:58:39.672Z,99.47
2023-06-22T23:01:08.051Z,99.54
2023-06-22T23:03:36.001Z,99.46
2023-06-22T23:06:03.926Z,99.40
2023-06-22T23:08:33.073Z,99.52
2023-06-22T23:11:00.965Z,99.88
2023-06-22T23:13:29.361Z,99.62
2023-06-22T23:15:57.125Z,99.73
2023-06-22T23:18:43.701Z,99.60
2023-06-22T23:25:45.972Z,100.00
2023-06-22T23:28:17.318Z,100.00
2023-06-22T23:30:50.139Z,100.00
2023-06-22T23:33:18.523Z,100.00
2023-06-22T23:35:46.446Z,100.00
2023-06-22T23:38:14.223Z,100.00
2023-06-22T23:40:42.083Z,100.00
2023-06-22T23:43:09.892Z,100.00
2023-06-22T23:45:39.197Z,100.00
2023-06-22T23:48:07.615Z,100.00
2023-06-22T23:50:35.391Z,100.00
2023-06-22T23:53:03.204Z,100.00
2023-06-22T23:55:31.207Z,100.00
2023-06-22T23:57:59.285Z,100.00
